Flight Track Log - Related Links

Times and Time Zones

All times are in EDT time to prevent confusion due to time zone crossing. See the TAM9376 flight status page for this flight to view local times or setup timezone preferences in your user account.

Time Position Orientation Groundspeed Altitude Reporting Facility
EDT Latitude Longitude Course Direction KTS MPH feet Rate Location/Type
Fri 04:03:41 PM -15.8670 -47.9210 101° East 22 25  Level FlightAware ADS-B
Fri 04:04:09 PM -15.8660 -47.9210 360° North 27 31 465 Level FlightAware ADS-B
Fri 04:04:38 PM -15.8670 -47.9190 117° Southeast 17 20 491 Level FlightAware ADS-B
Fri 04:05:17 PM -15.8670 -47.9160 90° East 30 35 521 Level FlightAware ADS-B
Fri 04:05:36 PM -15.8680 -47.9160 180° South 29 33 568 Level FlightAware ADS-B
Fri 04:05:46 PM -15.8690 -47.9160 180° South 33 38 594 Level FlightAware ADS-B
Fri 04:06:22 PM -15.8710 -47.9160 180° South 20 23 609 Level FlightAware ADS-B
Fri 04:06:45 PM -15.8730 -47.9160 180° South 25 29 668 Level FlightAware ADS-B
Fri 04:07:12 PM -15.8760 -47.9150 162° South 25 29 713 Level FlightAware ADS-B
Fri 04:09:00 PM -16.0275 -47.9337 187° South  Level Estimated
Fri 04:10:00 PM -16.1116 -47.9440 187° South  Level Estimated
Fri 04:11:00 PM -16.1958 -47.9544 187° South  Level Estimated
Fri 04:12:00 PM -16.2799 -47.9648 187° South  Level Estimated
Fri 04:12:30 PM -15.8780 -47.8980 187° South 150 173 4,100  Level FlightAware ADS-B
Fri 04:12:54 PM -15.8770 -47.8820 86° East 144 166 5,000 2,077 Climbing FlightAware ADS-B
Fri 04:13:22 PM -15.8890 -47.8670 130° Southeast 162 186 5,900 1,607 Climbing FlightAware ADS-B
Fri 04:13:50 PM -15.9110 -47.8640 173° South 184 212 6,500 1,200 Climbing FlightAware ADS-B
Fri 04:14:02 PM -15.9210 -47.8630 175° South 198 228 6,700 1,050 Climbing FlightAware ADS-B
Fri 04:14:30 PM -15.9510 -47.8600 175° South 239 275 7,200 1,043 Climbing FlightAware ADS-B
Fri 04:14:48 PM -15.9720 -47.8570 172° South 271 312 7,500 1,154 Climbing FlightAware ADS-B
Fri 04:14:56 PM -15.9820 -47.8560 175° South 281 323 7,700 1,875 Climbing FlightAware ADS-B
Fri 04:15:36 PM -16.0230 -47.8500 172° South 295 339 9,000 2,292 Climbing FlightAware ADS-B
Fri 04:16:25 PM -16.1040 -47.8480 179° South 334 384 11,100 2,413 Climbing FlightAware ADS-B
Fri 04:17:08 PM -16.1760 -47.8570 187° South 361 415 12,700 2,593 Climbing FlightAware ADS-B
Fri 04:17:46 PM -16.2420 -47.8650 187° South 362 417 14,600 2,634 Climbing FlightAware ADS-B
Fri 04:18:30 PM -16.3050 -47.8730 187° South 368 423 16,300 2,329 Climbing FlightAware ADS-B
Fri 04:19:11 PM -16.3840 -47.8830 187° South 384 442 17,900 2,625 Climbing FlightAware ADS-B
Fri 04:19:50 PM -16.4540 -47.8970 191° South 378 435 19,800 2,523 Climbing FlightAware ADS-B
Fri 04:20:39 PM -16.5370 -47.9150 192° South 382 440 21,600 1,888 Climbing FlightAware ADS-B
Fri 04:21:19 PM -16.6040 -47.9280 191° South 394 453 22,600 1,120 Climbing FlightAware ADS-B
Fri 04:21:54 PM -16.6760 -47.9430 191° South 418 481 23,000 575 Climbing FlightAware ADS-B
Fri 04:22:32 PM -16.7520 -47.9580 191° South 441 507 23,300 706 Climbing FlightAware ADS-B
Fri 04:23:19 PM -16.8430 -47.9760 191° South 451 519 24,000 951 Climbing FlightAware ADS-B
Fri 04:23:54 PM -16.9200 -47.9920 191° South 459 528 24,600 1,200 Climbing FlightAware ADS-B
Fri 04:24:34 PM -17.0050 -48.0080 190° South 459 528 25,500 1,608 Climbing FlightAware ADS-B
Fri 04:25:31 PM -17.1190 -48.0310 191° South 441 507 27,200 1,531 Climbing FlightAware ADS-B
Fri 04:26:12 PM -17.2040 -48.0480 191° South 442 509 28,000 1,341 Climbing FlightAware ADS-B
Fri 04:26:56 PM -17.2890 -48.0660 191° South 433 498 29,100 1,500 Climbing FlightAware ADS-B
Fri 04:27:32 PM -17.3620 -48.0800 190° South 426 490 30,000 1,214 Climbing FlightAware ADS-B
Fri 04:28:20 PM -17.4540 -48.0990 191° South 426 490 30,800 1,024 Climbing FlightAware ADS-B
Fri 04:28:54 PM -17.5220 -48.1120 190° South 423 487 31,400 1,083 Climbing FlightAware ADS-B
Fri 04:29:32 PM -17.5940 -48.1270 191° South 421 484 32,100 1,087 Climbing FlightAware ADS-B
Fri 04:31:01 PM -17.7620 -48.1610 191° South 417 480 33,700 1,143 Climbing FlightAware ADS-B
Fri 04:31:38 PM -17.8330 -48.1750 191° South 412 474 34,500 848 Climbing FlightAware ADS-B
Fri 04:32:33 PM -17.9270 -48.1930 190° South 411 473 35,000 891 Climbing FlightAware ADS-B
Fri 04:33:19 PM -18.0230 -48.2140 192° South 412 474 36,000 759 Climbing FlightAware ADS-B
Fri 04:33:52 PM -18.0850 -48.2260 190° South 410 472 36,000  Level FlightAware ADS-B
Fri 04:34:34 PM -18.1630 -48.2420 191° South 410 472 36,000  Level FlightAware ADS-B
Fri 04:35:20 PM -18.2490 -48.2590 191° South 410 472 36,000  Level FlightAware ADS-B
Fri 04:36:16 PM -18.3540 -48.2810 191° South 412 474 36,000 379 Level FlightAware ADS-B
Fri 04:36:55 PM -18.4270 -48.2960 191° South 410 472 36,600 815 Climbing FlightAware ADS-B
Fri 04:37:37 PM -18.5050 -48.3120 191° South 408 470 37,100 1,000 Climbing FlightAware ADS-B
Fri 04:38:19 PM -18.5820 -48.3270 190° South 397 457 38,000 692 Climbing FlightAware ADS-B
Fri 04:38:55 PM -18.6470 -48.3400 191° South 391 450 38,000  Level FlightAware ADS-B
Fri 04:39:35 PM -18.7180 -48.3550 191° South 394 453 38,000  Level FlightAware ADS-B
Fri 04:40:20 PM -18.7980 -48.3710 191° South 393 452 38,000  Level FlightAware ADS-B
Fri 04:40:53 PM -18.8580 -48.3840 192° South 392 451 38,000  Level FlightAware ADS-B
Fri 04:41:37 PM -18.9370 -48.4000 191° South 392 451 38,000  Level FlightAware ADS-B
Fri 04:42:17 PM -19.0090 -48.4150 191° South 393 452 38,000  Level FlightAware ADS-B
Fri 04:43:01 PM -19.0870 -48.4310 191° South 394 453 38,000  Level FlightAware ADS-B
Fri 04:43:41 PM -19.1580 -48.4450 191° South 395 455 38,000  Level FlightAware ADS-B
Fri 04:44:26 PM -19.2400 -48.4620 191° South 396 456 38,000  Level FlightAware ADS-B
Fri 04:45:06 PM -19.3120 -48.4770 191° South 397 457 38,000  Level FlightAware ADS-B
Fri 04:45:49 PM -19.3800 -48.4910 191° South 398 458 38,000  Level FlightAware ADS-B
Fri 04:46:31 PM -19.4660 -48.5080 191° South 398 458 38,000  Level FlightAware ADS-B
Fri 04:47:09 PM -19.5360 -48.5230 191° South 399 459 38,000  Level FlightAware ADS-B
Fri 04:47:51 PM -19.6120 -48.5390 191° South 398 458 38,000  Level FlightAware ADS-B
Fri 04:48:45 PM -19.7090 -48.5590 191° South 398 458 38,000  Level FlightAware ADS-B
Fri 04:49:23 PM -19.7790 -48.5730 191° South 397 457 38,000  Level FlightAware ADS-B
Fri 04:50:11 PM -19.8660 -48.5910 191° South 398 458 38,000  Level FlightAware ADS-B
Fri 04:50:51 PM -19.9380 -48.6060 191° South 398 458 38,000  Level FlightAware ADS-B
Fri 04:51:41 PM -20.0290 -48.6250 191° South 399 459 38,000  Level FlightAware ADS-B
Fri 04:52:21 PM -20.1030 -48.6400 191° South 400 460 38,000  Level FlightAware ADS-B
Fri 04:53:05 PM -20.1820 -48.6570 191° South 400 460 38,000  Level FlightAware ADS-B
Fri 04:53:41 PM -20.2470 -48.6700 191° South 400 460 38,000  Level FlightAware ADS-B
Fri 04:54:23 PM -20.3230 -48.6860 191° South 400 460 38,000  Level FlightAware ADS-B
Fri 04:55:03 PM -20.3960 -48.7010 191° South 400 460 38,000  Level FlightAware ADS-B
Fri 04:55:41 PM -20.4640 -48.7160 192° South 400 460 38,000  Level FlightAware ADS-B
Fri 04:56:19 PM -20.5340 -48.7300 191° South 400 460 38,000  Level FlightAware ADS-B
Fri 04:56:55 PM -20.6010 -48.7440 191° South 400 460 38,000  Level FlightAware ADS-B
Fri 04:57:37 PM -20.6760 -48.7600 191° South 400 460 38,000  Level FlightAware ADS-B
Fri 04:58:20 PM -20.7550 -48.7760 191° South 400 460 38,000  Level FlightAware ADS-B
Fri 04:58:51 PM -20.8100 -48.7880 192° South 400 460 38,000  Level FlightAware ADS-B
Fri 04:59:32 PM -20.8850 -48.8040 191° South 400 460 38,000  Level FlightAware ADS-B
Fri 05:01:31 PM -21.0760 -48.8440 191° South 400 460 38,000  Level FlightAware ADS-B
Fri 05:02:15 PM -21.1840 -48.8670 191° South 400 460 38,000  Level FlightAware ADS-B
Fri 05:02:57 PM -21.2600 -48.8830 191° South 401 461 38,000  Level FlightAware ADS-B
Fri 05:03:39 PM -21.3370 -48.8990 191° South 401 461 38,000  Level FlightAware ADS-B
Fri 05:04:19 PM -21.4100 -48.9140 191° South 402 463 38,000  Level FlightAware ADS-B
Fri 05:05:04 PM -21.4910 -48.9320 192° South 402 463 38,000  Level FlightAware ADS-B
Fri 05:05:41 PM -21.5600 -48.9460 191° South 403 464 38,000  Level FlightAware ADS-B
Fri 05:06:21 PM -21.6340 -48.9620 191° South 404 465 38,000  Level FlightAware ADS-B
Fri 05:07:05 PM -21.7150 -48.9790 191° South 405 466 38,000  Level FlightAware ADS-B
Fri 05:07:42 PM -21.7830 -48.9940 192° South 406 467 38,000  Level FlightAware ADS-B
Fri 05:08:21 PM -21.8560 -49.0090 191° South 406 467 38,000  Level FlightAware ADS-B
Fri 05:09:05 PM -21.9370 -49.0260 191° South 407 468 38,000  Level FlightAware ADS-B
Fri 05:09:39 PM -22.0020 -49.0310 184° South 407 468 38,000  Level FlightAware ADS-B
Fri 05:10:19 PM -22.0760 -49.0350 183° South 407 468 38,000  Level FlightAware ADS-B
Fri 05:10:58 PM -22.1500 -49.0390 183° South 408 470 38,000  Level FlightAware ADS-B
Fri 05:11:45 PM -22.2340 -49.0430 183° South 408 470 38,000  Level FlightAware ADS-B
Fri 05:12:25 PM -22.3140 -49.0460 182° South 409 471 38,000  Level FlightAware ADS-B
Fri 05:13:07 PM -22.3940 -49.0500 183° South 409 471 38,000  Level FlightAware ADS-B
Fri 05:13:51 PM -22.4780 -49.0540 183° South 409 471 38,000  Level FlightAware ADS-B
Fri 05:14:31 PM -22.5500 -49.0580 183° South 409 471 38,000  Level FlightAware ADS-B
Fri 05:15:52 PM -22.7060 -49.0650 182° South 409 471 38,000  Level FlightAware ADS-B
Fri 05:16:34 PM -22.7850 -49.0690 183° South 410 472 38,000  Level FlightAware ADS-B
Fri 05:17:16 PM -22.8640 -49.0730 183° South 410 472 38,000  Level FlightAware ADS-B
Fri 05:18:00 PM -22.9490 -49.0770 182° South 411 473 38,000  Level FlightAware ADS-B
Fri 05:18:42 PM -23.0290 -49.0810 183° South 412 474 38,000  Level FlightAware ADS-B
Fri 05:19:24 PM -23.1090 -49.0850 183° South 412 474 38,000  Level FlightAware ADS-B
Fri 05:20:04 PM -23.1860 -49.0890 183° South 413 475 38,000  Level FlightAware ADS-B
Fri 05:20:50 PM -23.2750 -49.0930 182° South 414 476 38,000  Level FlightAware ADS-B
Fri 05:21:29 PM -23.3470 -49.0970 183° South 415 478 38,000  Level FlightAware ADS-B
Fri 05:22:08 PM -23.4230 -49.1000 182° South 415 478 38,000  Level FlightAware ADS-B
Fri 05:22:54 PM -23.5120 -49.1050 183° South 415 478 38,000  Level FlightAware ADS-B
Fri 05:23:34 PM -23.5890 -49.1080 182° South 416 479 38,000  Level FlightAware ADS-B
Fri 05:24:18 PM -23.6740 -49.1130 183° South 416 479 38,000  Level FlightAware ADS-B
Fri 05:24:58 PM -23.7500 -49.1160 182° South 418 481 38,000 -282 Level FlightAware ADS-B
Fri 05:25:43 PM -23.8380 -49.1210 183° South 414 476 37,600 -818 Descending FlightAware ADS-B
Fri 05:26:26 PM -23.9240 -49.1250 182° South 414 476 36,800 -1,590 Descending FlightAware ADS-B
Fri 05:27:06 PM -23.9950 -49.1280 182° South 410 472 35,400 -2,289 Descending FlightAware ADS-B
Fri 05:27:42 PM -24.0660 -49.1320 183° South 404 465 33,900 -2,447 Descending FlightAware ADS-B
Fri 05:28:22 PM -24.1410 -49.1360 183° South 399 459 32,300 -2,286 Descending FlightAware ADS-B
Fri 05:29:06 PM -24.2220 -49.1400 183° South 394 453 30,700 -2,231 Descending FlightAware ADS-B
Fri 05:29:40 PM -24.2850 -49.1430 182° South 390 449 29,400 -2,189 Descending FlightAware ADS-B
Fri 05:30:20 PM -24.3530 -49.1460 182° South 388 447 28,000 -2,143 Descending FlightAware ADS-B
Fri 05:31:04 PM -24.4330 -49.1220 165° South 390 449 26,400 -2,231 Descending FlightAware ADS-B
Fri 05:31:38 PM -24.4910 -49.1050 165° South 386 444 25,100 -2,538 Descending FlightAware ADS-B
Fri 05:32:22 PM -24.5670 -49.1140 186° South 386 444 23,100 -2,163 Descending FlightAware ADS-B
Fri 05:33:04 PM -24.6380 -49.1340 194° South 380 437 22,000 -1,538 Descending FlightAware ADS-B
Fri 05:33:40 PM -24.6930 -49.1660 208° Southwest 382 440 21,100 -1,829 Descending FlightAware ADS-B
Fri 05:34:26 PM -24.7660 -49.2130 210° Southwest 376 433 19,500 -1,800 Descending FlightAware ADS-B
Fri 05:35:10 PM -24.8370 -49.2110 179° South 372 428 18,400 -1,214 Descending FlightAware ADS-B
Fri 05:35:50 PM -24.8910 -49.1660 143° Southeast 363 418 17,800 -1,000 Descending FlightAware ADS-B
Fri 05:36:28 PM -24.9430 -49.1220 143° Southeast 361 415 17,100 -1,263 Descending FlightAware ADS-B
Fri 05:37:06 PM -24.9930 -49.0800 143° Southeast 360 414 16,200 -1,610 Descending FlightAware ADS-B
Fri 05:37:50 PM -25.0510 -49.0310 143° Southeast 356 410 14,900 -1,694 Descending FlightAware ADS-B
Fri 05:38:31 PM -25.1060 -48.9850 143° Southeast 349 402 13,800 -1,624 Descending FlightAware ADS-B
Fri 05:39:15 PM -25.1610 -48.9380 142° Southeast 342 394 12,600 -1,429 Descending FlightAware ADS-B
Fri 05:39:55 PM -25.2130 -48.9000 147° Southeast 324 373 11,800 -1,154 Descending FlightAware ADS-B
Fri 05:40:07 PM -25.2290 -48.8980 174° South 317 365 11,600 -1,393 Descending FlightAware ADS-B
Fri 05:40:51 PM -25.2930 -48.9050 186° South 309 356 10,500 -1,750 Descending FlightAware ADS-B
Fri 05:41:19 PM -25.3330 -48.9090 185° South 315 362 9,500 -1,875 Descending FlightAware ADS-B
Fri 05:41:39 PM -25.3640 -48.9120 185° South 313 360 9,000 -1,421 Descending FlightAware ADS-B
Fri 05:41:57 PM -25.3900 -48.9140 184° South 308 354 8,600 -1,227 Descending FlightAware ADS-B
Fri 05:42:23 PM -25.4250 -48.9180 186° South 298 343 8,100 -973 Descending FlightAware ADS-B
Fri 05:42:34 PM -25.4280 -48.9180 180° South 302 348 8,000 -1,024 Descending FlightAware ADS-B
Fri 05:43:04 PM -25.4810 -48.9230 185° South 303 349 7,400 -1,200 Descending FlightAware ADS-B
Fri 05:43:29 PM -25.5160 -48.9270 186° South 299 344 6,900 -824 Descending FlightAware ADS-B
Fri 05:43:55 PM -25.5510 -48.9300 184° South 273 314 6,700 -222 Descending FlightAware ADS-B
Fri 05:44:23 PM -25.5840 -48.9330 185° South 245 282 6,700 -87 Level FlightAware ADS-B
Fri 05:45:04 PM -25.6170 -48.9520 207° Southwest 217 250 6,600 -646 Descending FlightAware ADS-B
Fri 05:45:28 PM -25.6290 -48.9810 245° Southwest 217 250 6,000 -1,263 Descending FlightAware ADS-B
Fri 05:46:01 PM -25.6430 -49.0130 244° Southwest 211 243 5,400 -1,067 Descending FlightAware ADS-B
Fri 05:46:13 PM -25.6470 -49.0250 250° West 203 234 5,200 -316 Descending FlightAware ADS-B
Fri 05:46:39 PM -25.6400 -49.0480 289° West 167 192 5,200  Level FlightAware ADS-B
Fri 05:47:08 PM -25.6280 -49.0640 310° West 138 159 5,200 -400 Level FlightAware ADS-B
Fri 05:47:39 PM -25.6140 -49.0800 314° West 130 150 4,800 -712 Descending FlightAware ADS-B
Fri 05:48:07 PM -25.6020 -49.0930 316° Northwest 130 150 4,500 -600 Descending FlightAware ADS-B
Fri 05:48:29 PM -25.5930 -49.1030 315° West 130 150 4,300 -652 Descending FlightAware ADS-B
Fri 05:48:53 PM -25.5830 -49.1150 313° West 129 148 4,000 -667 Descending FlightAware ADS-B
Fri 05:49:23 PM -25.5700 -49.1290 316° Northwest 129 148 3,700 -652 Descending FlightAware ADS-B
Fri 05:49:39 PM -25.5630 -49.1370 314° West 130 150 3,500 -750 Descending FlightAware ADS-B
Fri 05:50:03 PM -25.5530 -49.1480 315° West 130 150 3,200 -720 Descending FlightAware ADS-B
Fri 05:50:29 PM -25.5430 -49.1600 313° West 127 146 2,900 -600 Descending FlightAware ADS-B
Fri 05:50:53 PM -25.5320 -49.1720 315° West 125 144 2,700 -500 Descending FlightAware ADS-B
Fri 05:51:21 PM -25.5270 -49.1770 318° Northwest 32 37 -5,786 Descending FlightAware ADS-B
Fri 05:51:49 PM -25.5250 -49.1800 306° West 28 32  Level FlightAware ADS-B
Fri 05:52:15 PM -25.5260 -49.1800 180° South 33 38  Level FlightAware ADS-B
Fri 05:52:59 PM -25.5290 -49.1790 163° South 31 36  Level FlightAware ADS-B
Fri 05:53:29 PM -25.5300 -49.1780 138° Southeast 32 37  Level FlightAware ADS-B
Fri 05:53:58 PM -25.5300 -49.1760 90° East 30 35  Level FlightAware ADS-B
Fri 05:54:25 PM -25.5320 -49.1750 156° South 29 33  Level FlightAware ADS-B
Fri 05:54:51 PM -25.5330 -49.1730 119° Southeast 34 39  Level FlightAware ADS-B
Fri 05:55:15 PM -25.5340 -49.1720 138° Southeast 28 32  Level FlightAware ADS-B
Fri 05:55:41 PM -25.5360 -49.1720 180° South 28 32  Level FlightAware ADS-B
Fri 05:58:00 PM -25.5285 -49.1758 336° Northwest  Level Estimated

Login

Don't have an account? Register now (free) for customized features, flight alerts, and more!